Tampa — WAI6569 — position and weather

sailwx.info

Track history (hours):
 
Tides and Currents Weather Stations Pressure Air Temp Water Temp Dewpoint Dewpoint Depression Visibility Wind Speed Wind Dir Waves Ship Positions

Tampa

Owner: Seabulk Towing, Inc., TAMPA, FL. More information available from US FCC via Universal Licensing System and Coast Guard Vessel Documentation Center.

Last reported at 2018-Apr-19 19:30 UTC. Time now 2018-Apr-19 19:36 UTC.
Position N 39°33' W 076°04'.

; draft 4.3 m.

Type: Towing. MMSI: 366943510.

Date/timePositionNaut miles runAvg speedWind from/ knotsBaromVisibWave heightAir tempDewpointWater temp
2018-Apr-19 19:30N 39°33' W 076°04'0 0.0
2018-Apr-19 19:00N 39°33' W 076°04'0 0.0
2018-Apr-19 18:30N 39°33' W 076°04'0 0.0
2018-Apr-19 18:00N 39°33' W 076°04'0 0.0
2018-Apr-19 17:30N 39°33' W 076°04'0 0.0
2018-Apr-19 17:00N 39°33' W 076°04'0 0.0
2018-Apr-19 16:30N 39°33' W 076°04'0 0.0
2018-Apr-19 16:00N 39°33' W 076°04'0 0.0
2018-Apr-19 15:30N 39°33' W 076°04'0 0.0
2018-Apr-19 15:00N 39°33' W 076°04'0 0.0
2018-Apr-19 14:30N 39°33' W 076°04'0 0.0
2018-Apr-19 14:00N 39°33' W 076°04'0 0.0
2018-Apr-19 13:30N 39°33' W 076°04'0 0.0
2018-Apr-19 13:00N 39°33' W 076°04'0 0.0
2018-Apr-19 12:30N 39°33' W 076°04'0 0.0
2018-Apr-19 12:00N 39°33' W 076°04'0 0.0
2018-Apr-19 11:30N 39°33' W 076°04'0 0.0
2018-Apr-19 11:00N 39°33' W 076°04'0 0.0
2018-Apr-19 10:30N 39°33' W 076°04'0 0.0
2018-Apr-19 10:00N 39°33' W 076°04'0 0.0
2018-Apr-19 09:30N 39°33' W 076°04'0 0.0
2018-Apr-19 09:00N 39°33' W 076°04'0 0.6
2018-Apr-19 08:30N 39°33' W 076°05'3 5.6
2018-Apr-19 08:00N 39°30' W 076°05'3 5.3
2018-Apr-19 07:30N 39°28' W 076°03'3 5.1
2018-Apr-19 07:00N 39°25' W 076°03'3 5.5
2018-Apr-19 06:30N 39°23' W 076°05'3 5.7
2018-Apr-19 06:00N 39°22' W 076°08'3 5.6
2018-Apr-19 05:30N 39°20' W 076°11'3 5.6
2018-Apr-19 05:00N 39°18' W 076°13'3 5.8
2018-Apr-19 04:30N 39°15' W 076°14'3 5.6
2018-Apr-19 04:00N 39°13' W 076°16'3 5.8
2018-Apr-19 03:30N 39°10' W 076°18'3 5.7
2018-Apr-19 03:00N 39°08' W 076°20'3 5.9
2018-Apr-19 02:29N 39°05' W 076°21'3 6.1
2018-Apr-19 02:01N 39°02' W 076°22'3 6.3
2018-Apr-19 01:31N 38°59' W 076°23'3 6.0
2018-Apr-19 01:01N 38°56' W 076°24'3 6.2
2018-Apr-19 00:30N 38°53' W 076°24'3 6.6
2018-Apr-19 00:01N 38°50' W 076°24'3 5.9
2018-Apr-18 23:31N 38°48' W 076°21'2 3.1
2018-Apr-18 23:00N 38°47' W 076°21'0 0.0
2018-Apr-18 22:30N 38°47' W 076°21'0 0.1
2018-Apr-18 22:00N 38°47' W 076°21'2 4.6
2018-Apr-18 21:31N 38°49' W 076°21'3 5.6
2018-Apr-18 21:01N 38°51' W 076°24'3 6.4
2018-Apr-18 20:31N 38°54' W 076°24'3 6.1
2018-Apr-18 20:01N 38°57' W 076°23'3 6.2
2018-Apr-18 19:30N 39°00' W 076°23'3 6.5
2018-Apr-18 19:00N 39°03' W 076°22'3 6.2
2018-Apr-18 18:30N 39°06' W 076°20'3 6.0
2018-Apr-18 18:01N 39°09' W 076°19'3 6.3
2018-Apr-18 17:28N 39°12' W 076°16'4 6.0
2018-Apr-18 16:46N 39°16' W 076°14'2 6.2
2018-Apr-18 16:30N 39°17' W 076°14'3 6.1
2018-Apr-18 16:00N 39°20' W 076°12'3 6.1
2018-Apr-18 15:30N 39°22' W 076°09'3 6.3
2018-Apr-18 15:00N 39°23' W 076°05'3 5.7
2018-Apr-18 14:30N 39°25' W 076°02'3 5.0
2018-Apr-18 14:00N 39°28' W 076°03'3 5.5
2018-Apr-18 13:30N 39°29' W 076°05'3 5.6
2018-Apr-18 13:01N 39°32' W 076°05'0 0.9
2018-Apr-18 12:30N 39°33' W 076°04'0 0.0
2018-Apr-18 12:00N 39°33' W 076°04'0 0.0
2018-Apr-18 11:30N 39°33' W 076°04'0 0.0
2018-Apr-18 11:00N 39°33' W 076°04'0 0.0
2018-Apr-18 10:30N 39°33' W 076°04'0 0.0
2018-Apr-18 10:00N 39°33' W 076°04'0 0.0
2018-Apr-18 09:30N 39°33' W 076°04'0 0.0
2018-Apr-18 09:00N 39°33' W 076°04'0 0.0
2018-Apr-18 08:30N 39°33' W 076°04'0 0.0
2018-Apr-18 08:00N 39°33' W 076°04'1 1.7
2018-Apr-18 07:30N 39°32' W 076°05'3 6.5
2018-Apr-18 07:00N 39°29' W 076°04'3 6.9
2018-Apr-18 06:30N 39°25' W 076°02'4 7.4
2018-Apr-18 06:00N 39°23' W 076°06'4 7.8
2018-Apr-18 05:30N 39°21' W 076°10'4 7.5
2018-Apr-18 05:00N 39°18' W 076°13'5 7.4
2018-Apr-18 04:17N 39°13' W 076°15'2 7.1
2018-Apr-18 03:59N 39°11' W 076°17'3 6.6
2018-Apr-18 03:31N 39°09' W 076°19'9 7.5
2018-Apr-18 02:20N 39°00' W 076°23'2 6.4
2018-Apr-18 02:00N 38°58' W 076°23'3 6.3
2018-Apr-18 01:30N 38°55' W 076°24'2 4.9
2018-Apr-18 01:01N 38°53' W 076°24'4 8.3
2018-Apr-18 00:30N 38°57' W 076°23'4 8.8
2018-Apr-18 00:00N 39°01' W 076°23'4 8.0
2018-Apr-17 23:30N 39°05' W 076°24'6 8.6
2018-Apr-17 22:50N 39°11' W 076°26'2 7.5
2018-Apr-17 22:31N 39°12' W 076°29'3 6.7
2018-Apr-17 22:00N 39°13' W 076°33'1 1.6
2018-Apr-17 21:30N 39°14' W 076°34'0 0.0
2018-Apr-17 21:00N 39°14' W 076°34'0 0.0
2018-Apr-17 20:30N 39°14' W 076°34'0 0.0
2018-Apr-17 20:01N 39°14' W 076°34'0 0.0
2018-Apr-17 19:30N 39°14' W 076°34'0 0.0
2018-Apr-17 19:00N 39°14' W 076°34'0 0.1
2018-Apr-17 18:30N 39°13' W 076°34'4 7.6
2018-Apr-17 17:56N 39°12' W 076°29'4 8.6
2018-Apr-17 17:30N 39°09' W 076°25'5 8.2
2018-Apr-17 16:53N 39°04' W 076°23'3 8.7
2018-Apr-17 16:30N 39°01' W 076°23'5 8.7
2018-Apr-17 15:59N 38°57' W 076°23'4 8.5
2018-Apr-17 15:30N 38°53' W 076°23'4 7.6
2018-Apr-17 15:00N 38°49' W 076°22'3 0.5
2018-Apr-17 09:13N 38°46' W 076°21'0 0.0
2018-Apr-17 08:57N 38°46' W 076°21'0 0.0
2018-Apr-17 08:27N 38°46' W 076°21'0 0.0
2018-Apr-16 18:48N 38°46' W 076°21'0 0.0
2018-Apr-16 18:26N 38°46' W 076°21'0 0.0
2018-Apr-16 18:00N 38°46' W 076°21'0 0.0
2018-Apr-16 17:30N 38°46' W 076°21'0 0.0
2018-Apr-16 15:20N 38°47' W 076°21'0 0.1
2018-Apr-16 14:45N 38°47' W 076°21'0 0.0
2018-Apr-16 14:23N 38°47' W 076°21'0 0.0
2018-Apr-16 12:54N 38°47' W 076°21'0 0.0
2018-Apr-16 11:42N 38°47' W 076°21'0 0.0
2018-Apr-16 10:01N 38°47' W 076°21'0 0.0
2018-Apr-16 10:00N 38°47' W 076°21'0 0.0
2018-Apr-16 09:29N 38°47' W 076°21'0 0.0
2018-Apr-16 08:59N 38°47' W 076°21'0 0.0
2018-Apr-16 08:29N 38°47' W 076°21'0 0.0
2018-Apr-16 08:00N 38°47' W 076°21'0 0.0
2018-Apr-16 02:25N 38°46' W 076°21'0 0.0
2018-Apr-15 15:16N 38°46' W 076°21'1 3.8
2018-Apr-15 15:00N 38°47' W 076°21'2 3.3
2018-Apr-15 14:30N 38°49' W 076°22'3 5.8
2018-Apr-15 14:00N 38°51' W 076°24'3 6.3
2018-Apr-15 13:31N 38°55' W 076°23'4 7.4
2018-Apr-15 12:59N 38°58' W 076°23'4 7.6
2018-Apr-15 12:30N 39°02' W 076°22'18 6.2
2018-Apr-15 09:39N 39°18' W 076°13'1 5.5
2018-Apr-15 09:24N 39°20' W 076°12'3 5.9
2018-Apr-15 08:58N 39°21' W 076°10'3 6.2
2018-Apr-15 08:30N 39°23' W 076°07'3 5.7
2018-Apr-15 08:01N 39°24' W 076°03'3 4.9
2018-Apr-15 07:30N 39°27' W 076°02'3 5.4
2018-Apr-15 07:00N 39°29' W 076°04'3 5.4
2018-Apr-15 06:31N 39°31' W 076°05'1 2.7
2018-Apr-15 06:01N 39°33' W 076°04'0 0.2
2018-Apr-15 05:31N 39°33' W 076°05'1 1.6
2018-Apr-15 05:00N 39°32' W 076°05'3 5.7
2018-Apr-15 04:31N 39°29' W 076°05'3 5.6
2018-Apr-15 04:00N 39°27' W 076°02'3 5.4
2018-Apr-15 03:30N 39°24' W 076°03'3 5.9
2018-Apr-15 03:00N 39°23' W 076°06'3 5.8
2018-Apr-15 02:30N 39°21' W 076°10'3 6.0
2018-Apr-15 02:00N 39°19' W 076°12'3 6.4
2018-Apr-15 01:30N 39°16' W 076°14'13 6.3
2018-Apr-14 23:28N 39°05' W 076°21'3 6.2
2018-Apr-14 22:58N 39°02' W 076°22'14 1.6
2018-Apr-14 14:27N 39°14' W 076°14'3 6.6
2018-Apr-14 13:57N 39°17' W 076°14'3 6.4
2018-Apr-14 13:30N 39°20' W 076°12'3 6.5
2018-Apr-14 13:00N 39°22' W 076°08'3 6.3
2018-Apr-14 12:30N 39°23' W 076°05'3 5.3
2018-Apr-14 12:00N 39°25' W 076°02'2 4.6
2018-Apr-14 11:30N 39°28' W 076°03'2 4.6
2018-Apr-14 11:00N 39°29' W 076°05'2 4.4
2018-Apr-14 10:30N 39°31' W 076°05'2 3.1
2018-Apr-14 10:01N 39°33' W 076°04'0 0.2
2018-Apr-14 09:31N 39°33' W 076°05'2 4.7
2018-Apr-14 09:00N 39°30' W 076°05'3 5.7
2018-Apr-14 08:30N 39°28' W 076°03'3 6.0
2018-Apr-14 08:00N 39°25' W 076°03'3 6.4
2018-Apr-14 07:30N 39°23' W 076°06'3 6.3
2018-Apr-14 07:00N 39°21' W 076°09'3 6.1
2018-Apr-14 06:30N 39°19' W 076°12'3 6.0
2018-Apr-14 05:59N 39°16' W 076°14'16 6.2
2018-Apr-14 03:27N 39°02' W 076°22'15 2.0
2018-Apr-13 20:16N 39°16' W 076°14'2 5.8
2018-Apr-13 19:57N 39°17' W 076°13'3 6.4
2018-Apr-13 19:31N 39°20' W 076°12'3 6.6
2018-Apr-13 19:00N 39°22' W 076°08'3 6.8
2018-Apr-13 18:30N 39°23' W 076°05'3 6.2
2018-Apr-13 18:00N 39°26' W 076°02'3 6.3
2018-Apr-13 17:30N 39°29' W 076°04'3 5.9
2018-Apr-13 17:00N 39°32' W 076°05'1 2.2
2018-Apr-13 16:31N 39°33' W 076°05'3 5.9
2018-Apr-13 16:00N 39°30' W 076°05'3 5.8
2018-Apr-13 15:30N 39°28' W 076°03'3 5.8
2018-Apr-13 15:00N 39°25' W 076°03'3 6.0
2018-Apr-13 14:30N 39°23' W 076°06'3 6.2
2018-Apr-13 14:00N 39°21' W 076°09'3 6.4
2018-Apr-13 13:29N 39°19' W 076°13'3 5.9
2018-Apr-13 12:57N 39°16' W 076°14'4 6.3
2018-Apr-13 12:23N 39°13' W 076°15'3 6.5
2018-Apr-13 11:58N 39°11' W 076°17'3 6.3
2018-Apr-13 11:29N 39°08' W 076°20'3 6.2
2018-Apr-13 10:59N 39°05' W 076°21'3 6.2
2018-Apr-13 10:29N 39°02' W 076°22'3 6.7
2018-Apr-13 09:58N 38°59' W 076°23'4 6.7
2018-Apr-13 09:26N 38°55' W 076°24'9 4.9
2018-Apr-13 07:34N 38°46' W 076°21'0 0.4
2018-Apr-13 06:31N 38°47' W 076°21'0 0.0
2018-Apr-13 04:16N 38°47' W 076°21'0 0.0
2018-Apr-13 03:51N 38°47' W 076°21'0 0.0
2018-Apr-13 03:14N 38°47' W 076°21'0 0.0
2018-Apr-13 02:54N 38°47' W 076°21'0 0.0
2018-Apr-13 01:29N 38°47' W 076°21'0 0.0
2018-Apr-12 21:54N 38°47' W 076°21'0 0.0
2018-Apr-12 21:30N 38°47' W 076°21'0 0.0
2018-Apr-12 20:58N 38°47' W 076°21'0 0.0
2018-Apr-12 20:25N 38°47' W 076°21'0 0.0
2018-Apr-12 19:46N 38°47' W 076°21'0 0.0
2018-Apr-12 19:28N 38°47' W 076°21'0 0.0
2018-Apr-12 16:13N 38°47' W 076°21'0 0.0
2018-Apr-12 15:47N 38°47' W 076°21'0 0.0
2018-Apr-12 15:23N 38°47' W 076°21'0 0.0
2018-Apr-12 14:43N 38°47' W 076°21'0 0.0
2018-Apr-12 14:28N 38°47' W 076°21'0 0.0
2018-Apr-12 13:49N 38°47' W 076°21'0 0.0
2018-Apr-12 13:30N 38°47' W 076°21'0 0.0
2018-Apr-12 12:47N 38°47' W 076°21'0 0.0
2018-Apr-12 12:30N 38°47' W 076°21'0 0.1
2018-Apr-12 11:50N 38°47' W 076°21'0 0.0
2018-Apr-12 11:30N 38°47' W 076°21'0 0.1
2018-Apr-12 10:59N 38°47' W 076°21'0 0.0
2018-Apr-12 10:30N 38°47' W 076°21'0 0.0
2018-Apr-12 09:59N 38°47' W 076°21'0 0.0
2018-Apr-12 09:26N 38°47' W 076°21'0 0.0
2018-Apr-12 07:29N 38°47' W 076°21'0 0.0
2018-Apr-12 06:52N 38°47' W 076°21'1 1.1
2018-Apr-12 06:20N 38°47' W 076°21'2 4.0
2018-Apr-12 05:52N 38°49' W 076°22'2 5.6
2018-Apr-12 05:29N 38°51' W 076°24'3 5.7
2018-Apr-12 05:00N 38°53' W 076°24'3 5.6
2018-Apr-12 04:30N 38°56' W 076°24'3 5.8
2018-Apr-12 04:00N 38°59' W 076°23'3 5.9
2018-Apr-12 03:30N 39°02' W 076°22'3 6.1
2018-Apr-12 03:00N 39°05' W 076°21'3 5.9
2018-Apr-12 02:30N 39°07' W 076°20'3 6.5
2018-Apr-12 02:00N 39°10' W 076°18'4 6.5
2018-Apr-12 01:19N 39°14' W 076°15'2 6.6
2018-Apr-12 00:59N 39°16' W 076°14'3 6.1
2018-Apr-12 00:25N 39°19' W 076°12'3 6.5
2018-Apr-11 23:59N 39°21' W 076°09'3 6.6
2018-Apr-11 23:31N 39°23' W 076°06'3 6.0
2018-Apr-11 23:00N 39°25' W 076°03'2 4.6
2018-Apr-11 22:30N 39°27' W 076°02'3 5.8
2018-Apr-11 22:00N 39°29' W 076°05'3 5.4
2018-Apr-11 21:30N 39°32' W 076°05'1 2.1
2018-Apr-11 21:00N 39°33' W 076°04'0 0.0
2018-Apr-11 20:29N 39°33' W 076°04'0 0.0
2018-Apr-11 20:01N 39°33' W 076°04'0 0.0
2018-Apr-11 19:30N 39°33' W 076°04'0 0.1
2018-Apr-11 19:01N 39°33' W 076°04'0 0.0
2018-Apr-11 18:30N 39°33' W 076°04'0 0.0
2018-Apr-11 18:01N 39°33' W 076°04'0 0.0
2018-Apr-11 17:31N 39°33' W 076°04'0 0.1
2018-Apr-11 17:00N 39°33' W 076°04'0 0.1
2018-Apr-11 16:30N 39°33' W 076°04'0 0.0
2018-Apr-11 16:00N 39°33' W 076°04'0 0.0
2018-Apr-11 15:30N 39°33' W 076°04'0 0.0
2018-Apr-11 15:00N 39°33' W 076°04'0 0.2
2018-Apr-11 14:30N 39°33' W 076°05'3 5.6
2018-Apr-11 14:00N 39°30' W 076°05'3 6.2
2018-Apr-11 13:30N 39°28' W 076°03'5 5.9
2018-Apr-11 12:39N 39°23' W 076°06'1 4.6
2018-Apr-11 12:30N 39°23' W 076°06'3 5.8
2018-Apr-11 12:00N 39°21' W 076°10'3 5.7
2018-Apr-11 11:29N 39°19' W 076°12'3 5.9
2018-Apr-11 10:59N 39°17' W 076°14'10 5.6
2018-Apr-11 09:16N 39°08' W 076°20'2 5.6
2018-Apr-11 08:59N 39°06' W 076°20'3 5.8
2018-Apr-11 08:27N 39°03' W 076°21'4 6.0
2018-Apr-11 07:51N 39°00' W 076°23'3 5.6
2018-Apr-11 07:22N 38°57' W 076°23'6 1.2
2018-Apr-11 02:16N 38°51' W 076°24'3 5.9
2018-Apr-11 01:50N 38°54' W 076°24'2 6.0
2018-Apr-11 01:30N 38°56' W 076°23'3 5.9
2018-Apr-11 00:59N 38°59' W 076°23'4 6.8
2018-Apr-11 00:26N 39°03' W 076°22'3 5.7
2018-Apr-10 23:55N 39°05' W 076°21'2 5.5
2018-Apr-10 23:29N 39°08' W 076°20'9 6.1
2018-Apr-10 21:56N 39°16' W 076°14'3 6.4
2018-Apr-10 21:30N 39°18' W 076°13'3 5.9
2018-Apr-10 21:00N 39°21' W 076°11'3 5.9
2018-Apr-10 20:30N 39°22' W 076°07'3 5.7
2018-Apr-10 20:00N 39°24' W 076°04'3 5.1
2018-Apr-10 19:30N 39°26' W 076°02'2 4.7
2018-Apr-10 19:00N 39°28' W 076°03'3 5.0
2018-Apr-10 18:30N 39°30' W 076°05'3 5.5
2018-Apr-10 18:00N 39°32' W 076°05'0 0.6
2018-Apr-10 17:30N 39°33' W 076°05'0 0.0
2018-Apr-10 17:00N 39°33' W 076°05'0 0.0
2018-Apr-10 16:30N 39°33' W 076°05'0 0.0
2018-Apr-10 16:00N 39°33' W 076°04'0 0.0
2018-Apr-10 15:30N 39°33' W 076°04'0 0.0
2018-Apr-10 15:00N 39°33' W 076°04'0 0.0
2018-Apr-10 14:29N 39°33' W 076°04'0 0.0
2018-Apr-10 14:00N 39°33' W 076°04'0 0.0
2018-Apr-10 13:30N 39°33' W 076°04'0 0.0
2018-Apr-10 13:00N 39°33' W 076°04'0 0.0
2018-Apr-10 12:29N 39°33' W 076°04'0 0.0
2018-Apr-10 12:00N 39°33' W 076°04'0 0.0
2018-Apr-10 11:30N 39°33' W 076°04'0 0.0
2018-Apr-10 10:59N 39°33' W 076°04'0 0.0
2018-Apr-10 10:29N 39°33' W 076°04'0 0.0
2018-Apr-10 10:00N 39°33' W 076°04'1 1.8
2018-Apr-10 09:29N 39°32' W 076°05'2 4.5
2018-Apr-10 08:58N 39°29' W 076°05'2 4.6
2018-Apr-10 08:27N 39°28' W 076°03'2 4.4
2018-Apr-10 07:59N 39°26' W 076°02'2 5.1
2018-Apr-10 07:30N 39°24' W 076°04'3 5.4
2018-Apr-10 06:57N 39°22' W 076°07'2 5.1
2018-Apr-10 06:30N 39°21' W 076°10'3 5.3
2018-Apr-10 05:59N 39°19' W 076°12'3 5.0
2018-Apr-10 05:27N 39°17' W 076°14'  
Track history (hours):
 
Tides and Currents Weather Stations Pressure Air Temp Water Temp Dewpoint Dewpoint Depression Visibility Wind Speed Wind Dir Waves Ship Positions

Tampa

Owner: Seabulk Towing, Inc., TAMPA, FL. More information available from US FCC via Universal Licensing System and Coast Guard Vessel Documentation Center.

Last reported at 2018-Apr-19 19:30 UTC. Time now 2018-Apr-19 19:36 UTC.
Position N 39°33' W 076°04'.

; draft 4.3 m.

Type: Towing. MMSI: 366943510.

Date/timePositionNaut miles runAvg speedWind from/ knotsBaromVisibWave heightAir tempDewpointWater temp
2018-Apr-19 19:30N 39°33' W 076°04'0 0.0
2018-Apr-19 19:00N 39°33' W 076°04'0 0.0
2018-Apr-19 18:30N 39°33' W 076°04'0 0.0
2018-Apr-19 18:00N 39°33' W 076°04'0 0.0
2018-Apr-19 17:30N 39°33' W 076°04'0 0.0
2018-Apr-19 17:00N 39°33' W 076°04'0 0.0
2018-Apr-19 16:30N 39°33' W 076°04'0 0.0
2018-Apr-19 16:00N 39°33' W 076°04'0 0.0
2018-Apr-19 15:30N 39°33' W 076°04'0 0.0
2018-Apr-19 15:00N 39°33' W 076°04'0 0.0
2018-Apr-19 14:30N 39°33' W 076°04'0 0.0
2018-Apr-19 14:00N 39°33' W 076°04'0 0.0
2018-Apr-19 13:30N 39°33' W 076°04'0 0.0
2018-Apr-19 13:00N 39°33' W 076°04'0 0.0
2018-Apr-19 12:30N 39°33' W 076°04'0 0.0
2018-Apr-19 12:00N 39°33' W 076°04'0 0.0
2018-Apr-19 11:30N 39°33' W 076°04'0 0.0
2018-Apr-19 11:00N 39°33' W 076°04'0 0.0
2018-Apr-19 10:30N 39°33' W 076°04'0 0.0
2018-Apr-19 10:00N 39°33' W 076°04'0 0.0
2018-Apr-19 09:30N 39°33' W 076°04'0 0.0
2018-Apr-19 09:00N 39°33' W 076°04'0 0.6
2018-Apr-19 08:30N 39°33' W 076°05'3 5.6
2018-Apr-19 08:00N 39°30' W 076°05'3 5.3
2018-Apr-19 07:30N 39°28' W 076°03'3 5.1
2018-Apr-19 07:00N 39°25' W 076°03'3 5.5
2018-Apr-19 06:30N 39°23' W 076°05'3 5.7
2018-Apr-19 06:00N 39°22' W 076°08'3 5.6
2018-Apr-19 05:30N 39°20' W 076°11'3 5.6
2018-Apr-19 05:00N 39°18' W 076°13'3 5.8
2018-Apr-19 04:30N 39°15' W 076°14'3 5.6
2018-Apr-19 04:00N 39°13' W 076°16'3 5.8
2018-Apr-19 03:30N 39°10' W 076°18'3 5.7
2018-Apr-19 03:00N 39°08' W 076°20'3 5.9
2018-Apr-19 02:29N 39°05' W 076°21'3 6.1
2018-Apr-19 02:01N 39°02' W 076°22'3 6.3
2018-Apr-19 01:31N 38°59' W 076°23'3 6.0
2018-Apr-19 01:01N 38°56' W 076°24'3 6.2
2018-Apr-19 00:30N 38°53' W 076°24'3 6.6
2018-Apr-19 00:01N 38°50' W 076°24'3 5.9
2018-Apr-18 23:31N 38°48' W 076°21'2 3.1
2018-Apr-18 23:00N 38°47' W 076°21'0 0.0
2018-Apr-18 22:30N 38°47' W 076°21'0 0.1
2018-Apr-18 22:00N 38°47' W 076°21'2 4.6
2018-Apr-18 21:31N 38°49' W 076°21'3 5.6
2018-Apr-18 21:01N 38°51' W 076°24'3 6.4
2018-Apr-18 20:31N 38°54' W 076°24'3 6.1
2018-Apr-18 20:01N 38°57' W 076°23'3 6.2
2018-Apr-18 19:30N 39°00' W 076°23'3 6.5
2018-Apr-18 19:00N 39°03' W 076°22'3 6.2
2018-Apr-18 18:30N 39°06' W 076°20'3 6.0
2018-Apr-18 18:01N 39°09' W 076°19'3 6.3
2018-Apr-18 17:28N 39°12' W 076°16'4 6.0
2018-Apr-18 16:46N 39°16' W 076°14'2 6.2
2018-Apr-18 16:30N 39°17' W 076°14'3 6.1
2018-Apr-18 16:00N 39°20' W 076°12'3 6.1
2018-Apr-18 15:30N 39°22' W 076°09'3 6.3
2018-Apr-18 15:00N 39°23' W 076°05'3 5.7
2018-Apr-18 14:30N 39°25' W 076°02'3 5.0
2018-Apr-18 14:00N 39°28' W 076°03'3 5.5
2018-Apr-18 13:30N 39°29' W 076°05'3 5.6
2018-Apr-18 13:01N 39°32' W 076°05'0 0.9
2018-Apr-18 12:30N 39°33' W 076°04'0 0.0
2018-Apr-18 12:00N 39°33' W 076°04'0 0.0
2018-Apr-18 11:30N 39°33' W 076°04'0 0.0
2018-Apr-18 11:00N 39°33' W 076°04'0 0.0
2018-Apr-18 10:30N 39°33' W 076°04'0 0.0
2018-Apr-18 10:00N 39°33' W 076°04'0 0.0
2018-Apr-18 09:30N 39°33' W 076°04'0 0.0
2018-Apr-18 09:00N 39°33' W 076°04'0 0.0
2018-Apr-18 08:30N 39°33' W 076°04'0 0.0
2018-Apr-18 08:00N 39°33' W 076°04'1 1.7
2018-Apr-18 07:30N 39°32' W 076°05'3 6.5
2018-Apr-18 07:00N 39°29' W 076°04'3 6.9
2018-Apr-18 06:30N 39°25' W 076°02'4 7.4
2018-Apr-18 06:00N 39°23' W 076°06'4 7.8
2018-Apr-18 05:30N 39°21' W 076°10'4 7.5
2018-Apr-18 05:00N 39°18' W 076°13'5 7.4
2018-Apr-18 04:17N 39°13' W 076°15'2 7.1
2018-Apr-18 03:59N 39°11' W 076°17'3 6.6
2018-Apr-18 03:31N 39°09' W 076°19'9 7.5
2018-Apr-18 02:20N 39°00' W 076°23'2 6.4
2018-Apr-18 02:00N 38°58' W 076°23'3 6.3
2018-Apr-18 01:30N 38°55' W 076°24'2 4.9
2018-Apr-18 01:01N 38°53' W 076°24'4 8.3
2018-Apr-18 00:30N 38°57' W 076°23'4 8.8
2018-Apr-18 00:00N 39°01' W 076°23'4 8.0
2018-Apr-17 23:30N 39°05' W 076°24'6 8.6
2018-Apr-17 22:50N 39°11' W 076°26'2 7.5
2018-Apr-17 22:31N 39°12' W 076°29'3 6.7
2018-Apr-17 22:00N 39°13' W 076°33'1 1.6
2018-Apr-17 21:30N 39°14' W 076°34'0 0.0
2018-Apr-17 21:00N 39°14' W 076°34'0 0.0
2018-Apr-17 20:30N 39°14' W 076°34'0 0.0
2018-Apr-17 20:01N 39°14' W 076°34'0 0.0
2018-Apr-17 19:30N 39°14' W 076°34'0 0.0
2018-Apr-17 19:00N 39°14' W 076°34'0 0.1
2018-Apr-17 18:30N 39°13' W 076°34'4 7.6
2018-Apr-17 17:56N 39°12' W 076°29'4 8.6
2018-Apr-17 17:30N 39°09' W 076°25'5 8.2
2018-Apr-17 16:53N 39°04' W 076°23'3 8.7
2018-Apr-17 16:30N 39°01' W 076°23'5 8.7
2018-Apr-17 15:59N 38°57' W 076°23'4 8.5
2018-Apr-17 15:30N 38°53' W 076°23'4 7.6
2018-Apr-17 15:00N 38°49' W 076°22'3 0.5
2018-Apr-17 09:13N 38°46' W 076°21'0 0.0
2018-Apr-17 08:57N 38°46' W 076°21'0 0.0
2018-Apr-17 08:27N 38°46' W 076°21'0 0.0
2018-Apr-16 18:48N 38°46' W 076°21'0 0.0
2018-Apr-16 18:26N 38°46' W 076°21'0 0.0
2018-Apr-16 18:00N 38°46' W 076°21'0 0.0
2018-Apr-16 17:30N 38°46' W 076°21'0 0.0
2018-Apr-16 15:20N 38°47' W 076°21'0 0.1
2018-Apr-16 14:45N 38°47' W 076°21'0 0.0
2018-Apr-16 14:23N 38°47' W 076°21'0 0.0
2018-Apr-16 12:54N 38°47' W 076°21'0 0.0
2018-Apr-16 11:42N 38°47' W 076°21'0 0.0
2018-Apr-16 10:01N 38°47' W 076°21'0 0.0
2018-Apr-16 10:00N 38°47' W 076°21'0 0.0
2018-Apr-16 09:29N 38°47' W 076°21'0 0.0
2018-Apr-16 08:59N 38°47' W 076°21'0 0.0
2018-Apr-16 08:29N 38°47' W 076°21'0 0.0
2018-Apr-16 08:00N 38°47' W 076°21'0 0.0
2018-Apr-16 02:25N 38°46' W 076°21'0 0.0
2018-Apr-15 15:16N 38°46' W 076°21'1 3.8
2018-Apr-15 15:00N 38°47' W 076°21'2 3.3
2018-Apr-15 14:30N 38°49' W 076°22'3 5.8
2018-Apr-15 14:00N 38°51' W 076°24'3 6.3
2018-Apr-15 13:31N 38°55' W 076°23'4 7.4
2018-Apr-15 12:59N 38°58' W 076°23'4 7.6
2018-Apr-15 12:30N 39°02' W 076°22'18 6.2
2018-Apr-15 09:39N 39°18' W 076°13'1 5.5
2018-Apr-15 09:24N 39°20' W 076°12'3 5.9
2018-Apr-15 08:58N 39°21' W 076°10'3 6.2
2018-Apr-15 08:30N 39°23' W 076°07'3 5.7
2018-Apr-15 08:01N 39°24' W 076°03'3 4.9
2018-Apr-15 07:30N 39°27' W 076°02'3 5.4
2018-Apr-15 07:00N 39°29' W 076°04'3 5.4
2018-Apr-15 06:31N 39°31' W 076°05'1 2.7
2018-Apr-15 06:01N 39°33' W 076°04'0 0.2
2018-Apr-15 05:31N 39°33' W 076°05'1 1.6
2018-Apr-15 05:00N 39°32' W 076°05'3 5.7
2018-Apr-15 04:31N 39°29' W 076°05'3 5.6
2018-Apr-15 04:00N 39°27' W 076°02'3 5.4
2018-Apr-15 03:30N 39°24' W 076°03'3 5.9
2018-Apr-15 03:00N 39°23' W 076°06'3 5.8
2018-Apr-15 02:30N 39°21' W 076°10'3 6.0
2018-Apr-15 02:00N 39°19' W 076°12'3 6.4
2018-Apr-15 01:30N 39°16' W 076°14'13 6.3
2018-Apr-14 23:28N 39°05' W 076°21'3 6.2
2018-Apr-14 22:58N 39°02' W 076°22'14 1.6
2018-Apr-14 14:27N 39°14' W 076°14'3 6.6
2018-Apr-14 13:57N 39°17' W 076°14'3 6.4
2018-Apr-14 13:30N 39°20' W 076°12'3 6.5
2018-Apr-14 13:00N 39°22' W 076°08'3 6.3
2018-Apr-14 12:30N 39°23' W 076°05'3 5.3
2018-Apr-14 12:00N 39°25' W 076°02'2 4.6
2018-Apr-14 11:30N 39°28' W 076°03'2 4.6
2018-Apr-14 11:00N 39°29' W 076°05'2 4.4
2018-Apr-14 10:30N 39°31' W 076°05'2 3.1
2018-Apr-14 10:01N 39°33' W 076°04'0 0.2
2018-Apr-14 09:31N 39°33' W 076°05'2 4.7
2018-Apr-14 09:00N 39°30' W 076°05'3 5.7
2018-Apr-14 08:30N 39°28' W 076°03'3 6.0
2018-Apr-14 08:00N 39°25' W 076°03'3 6.4
2018-Apr-14 07:30N 39°23' W 076°06'3 6.3
2018-Apr-14 07:00N 39°21' W 076°09'3 6.1
2018-Apr-14 06:30N 39°19' W 076°12'3 6.0
2018-Apr-14 05:59N 39°16' W 076°14'16 6.2
2018-Apr-14 03:27N 39°02' W 076°22'15 2.0
2018-Apr-13 20:16N 39°16' W 076°14'2 5.8
2018-Apr-13 19:57N 39°17' W 076°13'3 6.4
2018-Apr-13 19:31N 39°20' W 076°12'3 6.6
2018-Apr-13 19:00N 39°22' W 076°08'3 6.8
2018-Apr-13 18:30N 39°23' W 076°05'3 6.2
2018-Apr-13 18:00N 39°26' W 076°02'3 6.3
2018-Apr-13 17:30N 39°29' W 076°04'3 5.9
2018-Apr-13 17:00N 39°32' W 076°05'1 2.2
2018-Apr-13 16:31N 39°33' W 076°05'3 5.9
2018-Apr-13 16:00N 39°30' W 076°05'3 5.8
2018-Apr-13 15:30N 39°28' W 076°03'3 5.8
2018-Apr-13 15:00N 39°25' W 076°03'3 6.0
2018-Apr-13 14:30N 39°23' W 076°06'3 6.2
2018-Apr-13 14:00N 39°21' W 076°09'3 6.4
2018-Apr-13 13:29N 39°19' W 076°13'3 5.9
2018-Apr-13 12:57N 39°16' W 076°14'4 6.3
2018-Apr-13 12:23N 39°13' W 076°15'3 6.5
2018-Apr-13 11:58N 39°11' W 076°17'3 6.3
2018-Apr-13 11:29N 39°08' W 076°20'3 6.2
2018-Apr-13 10:59N 39°05' W 076°21'3 6.2
2018-Apr-13 10:29N 39°02' W 076°22'3 6.7
2018-Apr-13 09:58N 38°59' W 076°23'4 6.7
2018-Apr-13 09:26N 38°55' W 076°24'9 4.9
2018-Apr-13 07:34N 38°46' W 076°21'0 0.4
2018-Apr-13 06:31N 38°47' W 076°21'0 0.0
2018-Apr-13 04:16N 38°47' W 076°21'0 0.0
2018-Apr-13 03:51N 38°47' W 076°21'0 0.0
2018-Apr-13 03:14N 38°47' W 076°21'0 0.0
2018-Apr-13 02:54N 38°47' W 076°21'0 0.0
2018-Apr-13 01:29N 38°47' W 076°21'0 0.0
2018-Apr-12 21:54N 38°47' W 076°21'0 0.0
2018-Apr-12 21:30N 38°47' W 076°21'0 0.0
2018-Apr-12 20:58N 38°47' W 076°21'0 0.0
2018-Apr-12 20:25N 38°47' W 076°21'0 0.0
2018-Apr-12 19:46N 38°47' W 076°21'0 0.0
2018-Apr-12 19:28N 38°47' W 076°21'0 0.0
2018-Apr-12 16:13N 38°47' W 076°21'0 0.0
2018-Apr-12 15:47N 38°47' W 076°21'0 0.0
2018-Apr-12 15:23N 38°47' W 076°21'0 0.0
2018-Apr-12 14:43N 38°47' W 076°21'0 0.0
2018-Apr-12 14:28N 38°47' W 076°21'0 0.0
2018-Apr-12 13:49N 38°47' W 076°21'0 0.0
2018-Apr-12 13:30N 38°47' W 076°21'0 0.0
2018-Apr-12 12:47N 38°47' W 076°21'0 0.0
2018-Apr-12 12:30N 38°47' W 076°21'0 0.1
2018-Apr-12 11:50N 38°47' W 076°21'0 0.0
2018-Apr-12 11:30N 38°47' W 076°21'0 0.1
2018-Apr-12 10:59N 38°47' W 076°21'0 0.0
2018-Apr-12 10:30N 38°47' W 076°21'0 0.0
2018-Apr-12 09:59N 38°47' W 076°21'0 0.0
2018-Apr-12 09:26N 38°47' W 076°21'0 0.0
2018-Apr-12 07:29N 38°47' W 076°21'0 0.0
2018-Apr-12 06:52N 38°47' W 076°21'1 1.1
2018-Apr-12 06:20N 38°47' W 076°21'2 4.0
2018-Apr-12 05:52N 38°49' W 076°22'2 5.6
2018-Apr-12 05:29N 38°51' W 076°24'3 5.7
2018-Apr-12 05:00N 38°53' W 076°24'3 5.6
2018-Apr-12 04:30N 38°56' W 076°24'3 5.8
2018-Apr-12 04:00N 38°59' W 076°23'3 5.9
2018-Apr-12 03:30N 39°02' W 076°22'3 6.1
2018-Apr-12 03:00N 39°05' W 076°21'3 5.9
2018-Apr-12 02:30N 39°07' W 076°20'3 6.5
2018-Apr-12 02:00N 39°10' W 076°18'4 6.5
2018-Apr-12 01:19N 39°14' W 076°15'2 6.6
2018-Apr-12 00:59N 39°16' W 076°14'3 6.1
2018-Apr-12 00:25N 39°19' W 076°12'3 6.5
2018-Apr-11 23:59N 39°21' W 076°09'3 6.6
2018-Apr-11 23:31N 39°23' W 076°06'3 6.0
2018-Apr-11 23:00N 39°25' W 076°03'2 4.6
2018-Apr-11 22:30N 39°27' W 076°02'3 5.8
2018-Apr-11 22:00N 39°29' W 076°05'3 5.4
2018-Apr-11 21:30N 39°32' W 076°05'1 2.1
2018-Apr-11 21:00N 39°33' W 076°04'0 0.0
2018-Apr-11 20:29N 39°33' W 076°04'0 0.0
2018-Apr-11 20:01N 39°33' W 076°04'0 0.0
2018-Apr-11 19:30N 39°33' W 076°04'0 0.1
2018-Apr-11 19:01N 39°33' W 076°04'0 0.0
2018-Apr-11 18:30N 39°33' W 076°04'0 0.0
2018-Apr-11 18:01N 39°33' W 076°04'0 0.0
2018-Apr-11 17:31N 39°33' W 076°04'0 0.1
2018-Apr-11 17:00N 39°33' W 076°04'0 0.1
2018-Apr-11 16:30N 39°33' W 076°04'0 0.0
2018-Apr-11 16:00N 39°33' W 076°04'0 0.0
2018-Apr-11 15:30N 39°33' W 076°04'0 0.0
2018-Apr-11 15:00N 39°33' W 076°04'0 0.2
2018-Apr-11 14:30N 39°33' W 076°05'3 5.6
2018-Apr-11 14:00N 39°30' W 076°05'3 6.2
2018-Apr-11 13:30N 39°28' W 076°03'5 5.9
2018-Apr-11 12:39N 39°23' W 076°06'1 4.6
2018-Apr-11 12:30N 39°23' W 076°06'3 5.8
2018-Apr-11 12:00N 39°21' W 076°10'3 5.7
2018-Apr-11 11:29N 39°19' W 076°12'3 5.9
2018-Apr-11 10:59N 39°17' W 076°14'10 5.6
2018-Apr-11 09:16N 39°08' W 076°20'2 5.6
2018-Apr-11 08:59N 39°06' W 076°20'3 5.8
2018-Apr-11 08:27N 39°03' W 076°21'4 6.0
2018-Apr-11 07:51N 39°00' W 076°23'3 5.6
2018-Apr-11 07:22N 38°57' W 076°23'6 1.2
2018-Apr-11 02:16N 38°51' W 076°24'3 5.9
2018-Apr-11 01:50N 38°54' W 076°24'2 6.0
2018-Apr-11 01:30N 38°56' W 076°23'3 5.9
2018-Apr-11 00:59N 38°59' W 076°23'4 6.8
2018-Apr-11 00:26N 39°03' W 076°22'3 5.7
2018-Apr-10 23:55N 39°05' W 076°21'2 5.5
2018-Apr-10 23:29N 39°08' W 076°20'9 6.1
2018-Apr-10 21:56N 39°16' W 076°14'3 6.4
2018-Apr-10 21:30N 39°18' W 076°13'3 5.9
2018-Apr-10 21:00N 39°21' W 076°11'3 5.9
2018-Apr-10 20:30N 39°22' W 076°07'3 5.7
2018-Apr-10 20:00N 39°24' W 076°04'3 5.1
2018-Apr-10 19:30N 39°26' W 076°02'2 4.7
2018-Apr-10 19:00N 39°28' W 076°03'3 5.0
2018-Apr-10 18:30N 39°30' W 076°05'3 5.5
2018-Apr-10 18:00N 39°32' W 076°05'0 0.6
2018-Apr-10 17:30N 39°33' W 076°05'0 0.0
2018-Apr-10 17:00N 39°33' W 076°05'0 0.0
2018-Apr-10 16:30N 39°33' W 076°05'0 0.0
2018-Apr-10 16:00N 39°33' W 076°04'0 0.0
2018-Apr-10 15:30N 39°33' W 076°04'0 0.0
2018-Apr-10 15:00N 39°33' W 076°04'0 0.0
2018-Apr-10 14:29N 39°33' W 076°04'0 0.0
2018-Apr-10 14:00N 39°33' W 076°04'0 0.0
2018-Apr-10 13:30N 39°33' W 076°04'0 0.0
2018-Apr-10 13:00N 39°33' W 076°04'0 0.0
2018-Apr-10 12:29N 39°33' W 076°04'0 0.0
2018-Apr-10 12:00N 39°33' W 076°04'0 0.0
2018-Apr-10 11:30N 39°33' W 076°04'0 0.0
2018-Apr-10 10:59N 39°33' W 076°04'0 0.0
2018-Apr-10 10:29N 39°33' W 076°04'0 0.0
2018-Apr-10 10:00N 39°33' W 076°04'1 1.8
2018-Apr-10 09:29N 39°32' W 076°05'2 4.5
2018-Apr-10 08:58N 39°29' W 076°05'2 4.6
2018-Apr-10 08:27N 39°28' W 076°03'2 4.4
2018-Apr-10 07:59N 39°26' W 076°02'2 5.1
2018-Apr-10 07:30N 39°24' W 076°04'3 5.4
2018-Apr-10 06:57N 39°22' W 076°07'2 5.1
2018-Apr-10 06:30N 39°21' W 076°10'3 5.3
2018-Apr-10 05:59N 39°19' W 076°12'3 5.0
2018-Apr-10 05:27N 39°17' W 076°14'  

Dump ship's entire track history